Weather observations for the past three days for
Crockett, Houston County Airport
Metric (Imperial)
Date Time (cdt) Wind (kph) Vis. (km) Weather Sky Cond. Temperature (ºC) Relative Humidity Wind Chill (°C) Heat Index (°C) Pressure Precipitation (cm)
Air Dwpt 6 hour altimeter (cm) sea level (mb) 1 hr 3 hr 6 hr
Max. Min.
09 02:55 Calm 4.83 Fog/Mist BKN004 22 22 100% 75.82 0.0
09 02:35 Calm 6.44 Fog/Mist SCT004 22 22 100% 75.82 0.0
09 02:15 Calm 6.44 Fog/Mist FEW004 22 22 100% 75.82 0.0
09 01:55 Calm 8.05 Fog/Mist BKN004 22 22 100% 75.82 0.0
09 01:35 Calm 8.05 Fog/Mist BKN004 22 22 100% 75.79 0.0
09 01:15 Calm 9.66 Fog/Mist SCT005 22 22 100% 75.79 0.0
09 00:55 SE 7 G 19 12.87 A Few Clouds FEW006 22 22 100% 75.77 0.0
09 00:35 S 9 16.09 A Few Clouds FEW007 22 22 100% 75.77 0.0
09 00:15 SE 7 16.09 Mostly Cloudy BKN009 22 22 100% 75.77 0.0
08 23:55 SE 7 16.09 Overcast OVC010 22 22 100% 75.79 0.0
08 23:35 SE 7 16.09 Overcast OVC011 22 22 100% 75.79 0.0
08 23:15 Calm 16.09 Overcast OVC013 22 22 100% 75.79 0.0
08 22:55 Calm 16.09 Overcast OVC014 22 22 100% 75.77 0.0
08 22:35 Calm 16.09 Overcast OVC012 22 22 100% 75.77 0.0
08 22:15 Calm 16.09 Overcast OVC013 22 22 100% 75.74 0.0
08 21:55 Calm 16.09 Mostly Cloudy BKN014 22 22 100% 75.74 0.0
08 21:35 Calm 16.09 Partly Cloudy SCT015 22 22 100% 75.72 0.0
08 21:15 Calm 16.09 Overcast OVC015 22 22 100% 75.67 0.0
08 20:55 SE 9 16.09 Overcast OVC018 22 22 100% 75.67 0.0
08 20:35 SE 9 16.09 Overcast OVC018 22 22 100% 75.67 0.0
08 20:15 Calm 16.09 Partly Cloudy SCT019 23 22 94% 75.69 0.0
08 19:35 Vrbl 7 16.09 Fair CLR 24 21 83% 24 75.67 0.0
08 19:15 Calm 16.09 Fair CLR 24 21 83% 24 75.69 0.0
08 18:55 SE 9 16.09 A Few Clouds FEW029 24 21 83% 24 75.72 0.0
08 18:35 Vrbl 6 14.48 Partly Cloudy SCT019 SCT026 24 22 89% 24 75.74 0.0
08 18:15 Calm 16.09 Partly Cloudy SCT022 25 22 83% 26 75.72 0.0
08 17:55 Calm 16.09 A Few Clouds FEW020 FEW025 25 21 79% 26 75.72 0.0
08 17:15 Calm 16.09 Fair CLR 25 21 79% 26 75.74 0.0
08 16:55 SE 7 16.09 Fair CLR 25 21 79% 26 75.74 0.0
08 16:35 Vrbl 7 16.09 A Few Clouds FEW018 25 21 79% 26 75.74 0.0
08 16:15 Vrbl 9 16.09 Fair CLR 25 21 79% 26 75.74 0.0
08 15:55 Calm 16.09 Fair CLR 25 21 79% 26 75.77 0.0
08 15:35 SE 9 16.09 Fair CLR 25 21 79% 26 75.79 0.0
08 15:15 Calm 16.09 Fair CLR 23 20 83% 75.82 0.0
08 14:55 Calm 16.09 A Few Clouds FEW016 24 20 78% 24 75.82 0.0
08 14:35 Calm 16.09 A Few Clouds FEW014 24 20 78% 24 75.84 0.0
08 14:15 Calm 16.09 NULL NULL 23 20 83% 75.84 0.0
08 13:55 Calm 16.09 NULL NULL 24 21 83% 24 75.84 0.0
08 13:35 Vrbl 11 16.09 Fair CLR 23 20 83% 75.87 0.0
08 13:15 Vrbl 9 16.09 Fair CLR 22 20 88% 75.9 0.0
08 12:55 NE 11 16.09 Fair CLR 21 19 88% 75.95 0.0
08 12:35 NE 13 16.09 A Few Clouds FEW009 20 19 94% 75.97 0.0
08 12:15 NE 11 16.09 Fair CLR 19 19 100% 76 0.0
08 11:55 NE 13 16.09 Fair CLR 19 19 100% 76 0.0
08 11:35 NE 7 16.09 NULL NULL 19 19 100% 76.02 0.0
08 11:15 E 7 16.09 NULL NULL 19 19 100% 76.05 0.0
08 10:55 NE 6 9.66 Light Rain Fog/Mist CLR 18 18 100% 76.05 0.0 0.13
08 10:35 Calm 12.87 Light Rain CLR 19 18 94% 76.07 0.0
08 10:15 E 7 16.09 Fair CLR 19 18 94% 76.07 0.0
08 09:55 Vrbl 7 16.09 Fair CLR 19 18 94% 76.07 0.0
08 09:35 Calm 16.09 Thunderstorm in Vicinity CLR 18 17 94% 76.07 0.0
08 09:15 Calm 16.09 Fair CLR 18 18 100% 76.07 0.0
08 08:55 Calm 16.09 Fair CLR 17 17 100% 76.07 0.0
08 08:15 Calm 16.09 Thunderstorm in Vicinity CLR 17 17 100% 76.1 0.0
08 07:35 Calm 16.09 Thunderstorm in Vicinity Rain OVC029 17 16 94% 76.05 0.0
08 07:15 Calm 16.09 Thunderstorm in Vicinity OVC028 17 16 94% 76.07 0.0
08 06:55 NE 6 16.09 Thunderstorm in Vicinity OVC027 17 16 94% 76.05 0.0
08 06:35 N 11 16.09 Overcast OVC028 17 16 94% 76.02 0.0
08 06:15 Calm 16.09 Overcast OVC030 17 16 94% 76.07 0.0
08 05:55 Calm 16.09 Overcast OVC031 17 16 94% 76.07 0.0
08 05:35 Calm 16.09 Overcast OVC032 17 16 94% 76.07 0.0
08 05:15 NE 6 16.09 Overcast OVC033 17 15 88% 76.07 0.0
08 04:55 Calm 16.09 Overcast OVC035 17 15 88% 76.07 0.0
08 04:35 Calm 16.09 Overcast OVC035 17 15 88% 76.07 0.0
08 04:15 Calm 16.09 Overcast OVC034 17 15 88% 76.1 0.0
08 03:55 Calm 16.09 Overcast OVC034 16 15 94% 76.05 0.0
08 03:35 Calm 16.09 Overcast BKN034 BKN040 OVC048 16 15 94% 76.07 0.0
08 03:15 Calm 16.09 Partly Cloudy FEW039 SCT048 16 15 94% 76.07 0.0
08 02:35 NE 6 16.09 Partly Cloudy FEW035 SCT045 16 15 94% 76.1 0.0
08 02:15 N 9 16.09 Overcast BKN035 OVC044 16 15 94% 76.1 0.0
08 01:55 Calm 16.09 Mostly Cloudy SCT035 BKN045 16 15 94% 76.12 0.0
08 01:35 Calm 16.09 Fair CLR 15 15 100% 76.12 0.0
08 01:15 Calm 16.09 Fair CLR 16 15 94% 76.12 0.0
08 00:55 NE 7 16.09 Fair CLR 16 15 94% 76.1 0.0
08 00:35 Calm 16.09 Fair CLR 16 15 94% 76.12 0.0
08 00:15 Calm 16.09 Fair CLR 16 16 100% 76.15 0.0
07 23:55 Calm 16.09 Fair CLR 16 16 100% 76.12 0.0
07 23:35 NW 11 16.09 Fair CLR 16 15 94% 76.17 0.0
07 23:15 Calm 16.09 Fair CLR 16 15 94% 76.15 0.0
07 22:55 Calm 16.09 Fair CLR 16 15 94% 76.12 0.0
07 22:35 NE 7 16.09 Fair CLR 16 15 94% 76.1 0.0
07 21:55 N 9 16.09 Fair CLR 17 15 88% 76.15 0.0
07 21:35 N 7 16.09 Fair CLR 17 15 88% 76.12 0.0
07 21:15 E 9 16.09 A Few Clouds FEW130 FEW200 16 15 94% 76.07 0.0
07 20:55 Calm 16.09 A Few Clouds FEW130 FEW200 16 16 100% 76.1 0.0
07 20:35 Calm 16.09 Fair CLR 16 16 100% 76.07 0.0
07 20:15 Calm 16.09 Fair CLR 17 16 94% 76.12 0.0
07 19:55 Calm 16.09 Fair CLR 17 15 88% 76.15 0.0
07 19:35 NW 7 16.09 Fair CLR 17 16 94% 76.2 0.0
07 19:15 NW 7 16.09 Fair CLR 18 16 88% 76.2 0.0
07 18:55 Calm 16.09 Fair CLR 18 16 88% 76.12 0.0
07 18:35 Calm 16.09 Fair CLR 18 16 88% 76.15 0.0
07 18:15 Calm 16.09 Fair CLR 18 15 83% 76.1 0.0
07 17:55 Calm 16.09 Fair CLR 18 16 88% 76.12 0.0
07 17:35 N 6 16.09 Fair CLR 18 16 88% 76.17 0.0
07 17:15 Calm 16.09 Light Rain CLR 18 16 88% 76.17 0.0
07 16:55 NW 7 11.27 Light Rain CLR 18 16 88% 76.15 0.0
07 16:35 N 9 16.09 Fair CLR 19 13 68% 76.17 0.0
07 16:15 NW 11 16.09 Fair CLR 20 14 69% 76.2 0.0
07 15:55 N 11 16.09 Fair CLR 21 13 60% 76.17 0.0
07 15:35 Vrbl 7 G 22 16.09 Fair CLR 21 13 60% 76.17 0.0
07 15:15 NE 15 12.87 Fair CLR 21 13 60% 76.15 0.0
07 14:35 Calm 16.09 Fair CLR 20 12 60% 76.28 0.0
07 14:15 NE 7 16.09 Fair CLR 20 12 60% 76.25 0.0
07 13:55 Vrbl 7 G 20 16.09 Fair CLR 19 11 60% 76.3 0.0
07 13:35 NE 17 16.09 Fair CLR 19 11 60% 76.23 0.0
07 13:15 NE 15 16.09 Fair CLR 19 12 64% 76.3 0.0
07 12:55 N 11 G 22 16.09 Fair CLR 19 11 60% 76.33 0.0
07 12:15 N 13 16.09 Fair CLR 18 11 64% 76.33 0.0
07 11:55 N 13 16.09 Fair CLR 18 11 64% 76.33 0.0
07 11:35 Vrbl 11 G 24 16.09 Fair CLR 19 11 60% 76.3 0.0
07 10:55 NE 15 G 24 16.09 Fair CLR 17 11 68% 76.28 0.0
07 10:35 Vrbl 11 16.09 Fair CLR 17 11 68% 76.38 0.0
07 10:15 N 15 G 26 16.09 Fair CLR 16 10 68% 76.35 0.0
07 09:55 N 17 G 26 16.09 Fair CLR 16 10 68% 76.38 0.0
07 09:35 N 15 16.09 Fair CLR 16 10 68% 76.4 0.0
07 09:15 N 15 G 26 16.09 Fair CLR 15 10 72% 76.38 0.0
07 08:55 N 15 G 24 16.09 A Few Clouds FEW023 16 11 72% 76.38 0.0
07 08:35 N 13 16.09 Partly Cloudy SCT023 15 10 72% 76.38 0.0
07 08:15 N 9 16.09 NULL NULL 14 10 77% 76.35 0.0
07 07:55 N 9 16.09 Overcast OVC022 14 10 77% 76.38 0.0
07 07:35 N 11 16.09 Overcast OVC021 14 10 77% 76.3 0.0
07 07:15 N 11 16.09 Overcast OVC020 14 11 82% 76.28 0.0
07 06:55 N 13 16.09 Overcast OVC019 14 12 88% 76.3 0.0
07 06:35 N 11 16.09 Overcast OVC018 14 12 88% 76.28 0.0
07 05:55 N 9 16.09 Overcast OVC018 14 12 88% 76.23 0.0
07 05:35 Vrbl 7 16.09 Overcast OVC016 14 12 88% 76.25 0.0
07 05:15 N 9 16.09 Overcast OVC015 14 12 88% 76.2 0.0
07 04:55 Vrbl 11 16.09 Overcast OVC013 14 13 94% 76.15 0.0
07 04:35 N 15 16.09 Overcast OVC012 14 13 94% 76.15 0.0
07 04:15 NE 9 16.09 Mostly Cloudy BKN012 14 13 94% 76.1 0.0
07 03:55 NE 17 16.09 Mostly Cloudy BKN012 BKN020 14 13 94% 76.07 0.0
07 03:35 NE 15 16.09 Mostly Cloudy BKN010 BKN020 14 13 94% 76.1 0.0
07 03:15 N 15 16.09 Partly Cloudy SCT009 14 14 100% 76.12 0.0
07 02:55 N 20 G 30 16.09 Partly Cloudy SCT009 14 14 100% 76.15 0.0
07 02:35 NE 13 16.09 Fair CLR 14 14 100% 76.15 0.0
07 02:15 N 13 G 24 14.48 A Few Clouds FEW009 14 14 100% 76.17 0.0
07 01:55 N 17 16.09 A Few Clouds FEW009 15 15 100% 76.17 0.0
07 01:35 N 15 G 26 14.48 Partly Cloudy SCT010 15 15 100% 76.15 0.0
07 01:15 N 9 G 22 16.09 Overcast BKN010 OVC014 16 15 94% 76.2 0.0
07 00:55 N 19 16.09 Mostly Cloudy BKN009 16 16 100% 76.17 0.0
07 00:35 N 17 16.09 Mostly Cloudy BKN009 16 16 100% 76.15 0.0
07 00:15 N 17 16.09 Mostly Cloudy BKN010 16 16 100% 76.15 0.0
06 23:35 N 11 12.87 A Few Clouds FEW009 17 17 100% 76.12 0.0
06 23:15 N 9 16.09 Mostly Cloudy BKN009 17 17 100% 76.15 0.0
06 22:55 Vrbl 7 G 19 16.09 Overcast OVC010 17 17 100% 76.12 0.0
06 22:35 N 13 16.09 Overcast OVC010 17 17 100% 76.1 0.0
06 22:15 N 13 16.09 Overcast OVC010 17 17 100% 76.07 0.0
06 21:55 N 11 14.48 Overcast OVC010 17 17 100% 76.05 0.0
06 21:35 Vrbl 9 12.87 Overcast OVC011 17 17 100% 76 0.0
06 20:55 N 13 16.09 Overcast OVC012 17 16 94% 75.97 0.0
06 20:35 N 13 16.09 Overcast OVC012 18 16 88% 75.95 0.0
06 20:15 N 11 16.09 Overcast OVC013 18 16 88% 75.92 0.0
06 19:55 N 13 16.09 Mostly Cloudy BKN014 18 16 88% 75.9 0.0
06 19:35 N 9 14.48 Fair CLR 18 17 94% 75.9 0.0
06 19:15 NW 13 16.09 Fair CLR 19 17 88% 75.87 0.0
06 18:55 N 13 16.09 Fair CLR 20 17 83% 75.84 0.0
06 18:35 N 13 G 22 16.09 Fair CLR 21 17 78% 75.82 0.0
06 18:15 N 11 G 22 14.48 Fair CLR 21 18 83% 75.82 0.0
06 17:55 N 15 G 24 16.09 Fair CLR 22 19 83% 75.79 0.0
06 17:35 NW 13 16.09 Fair CLR 22 19 83% 75.79 0.0
06 17:15 NW 11 16.09 Fair CLR 23 20 83% 75.77 0.0
06 16:55 NW 11 16.09 Fair CLR 23 20 83% 75.77 0.0
06 16:35 NW 13 16.09 Mostly Cloudy BKN021 23 20 83% 75.77 0.0
06 16:15 NW 15 16.09 Overcast OVC021 23 20 83% 75.74 0.0
06 15:55 NW 15 G 24 16.09 Overcast OVC019 24 21 83% 24 75.74 0.0
06 15:35 NW 9 14.48 Partly Cloudy SCT018 26 23 84% 28 75.74 0.0
06 15:15 W 7 14.48 Fair CLR 26 23 84% 28 75.74 0.0
06 14:55 Calm 14.48 Fair CLR 25 22 83% 26 75.77 0.0
06 14:35 Calm 14.48 Fair CLR 24 21 83% 24 75.74 0.0
06 14:15 NE 6 12.87 Fair CLR 23 21 89% 75.77 0.0
06 13:55 NE 9 11.27 Fair CLR 21 20 94% 75.77 0.0
06 13:35 NE 13 9.66 Fog/Mist FEW008 20 20 100% 75.79 0.0
06 13:15 N 13 9.66 Fog/Mist BKN008 20 19 94% 75.84 0.0
06 12:55 N 11 9.66 Fog/Mist BKN009 19 19 100% 75.9 0.0 0.1
06 12:35 NW 11 11.27 Partly Cloudy SCT011 20 19 94% 75.95 0.0
06 12:15 NW 15 G 26 8.05 Light Rain Fog/Mist FEW012 20 20 100% 75.95 0.0
06 11:55 NW 13 G 24 3.22 Rain Fog/Mist FEW014 21 21 100% 75.95 0.0 0.2
06 11:35 NW 17 4.02 Light Rain Fog/Mist SCT014 23 23 100% 75.92 0.0
06 11:15 SW 9 9.66 Fog/Mist SCT015 25 24 94% 26 75.9 0.0
06 10:55 Vrbl 6 9.66 Fog/Mist FEW014 26 24 89% 28 75.84 0.0
06 10:35 Calm 6.44 Light Rain Fog/Mist SCT016 25 25 100% 25 75.82 0.0
06 10:15 S 9 9.66 Light Rain Fog/Mist BKN016 25 24 94% 26 75.82 0.0
06 09:55 S 9 9.66 Fog/Mist FEW013 25 24 94% 26 75.82 0.0
06 09:35 S 7 9.66 Fog/Mist FEW012 25 24 94% 26 75.79 0.0
06 09:15 Vrbl 6 9.66 Fog/Mist FEW015 25 24 94% 26 75.77 0.0
06 08:55 Calm 8.05 Fog/Mist SCT015 24 24 100% 23 75.77 0.0
06 08:15 Calm 6.44 Fog/Mist BKN015 BKN020 23 23 100% 75.77 0.0
06 07:55 Calm 6.44 Fog/Mist SCT015 SCT022 23 23 100% 75.77 0.0
06 07:35 Calm 4.83 Fog/Mist BKN016 BKN023 BKN028 23 23 100% 75.77 0.0
06 07:15 Calm 4.02 Fog/Mist FEW023 SCT029 22 22 100% 75.74 0.0
06 06:55 Calm 4.83 Fog/Mist SCT018 SCT024 SCT028 22 22 100% 75.72 0.0
06 06:35 Calm 4.83 Fog/Mist BKN018 BKN027 BKN032 22 22 100% 75.72 0.0
06 06:15 Calm 8.05 Fog/Mist BKN018 BKN026 OVC033 22 22 100% 75.69 0.0
06 05:55 Calm 8.05 Fog/Mist BKN019 OVC029 22 22 100% 75.69 0.0
06 05:35 Calm 8.05 Fog/Mist BKN019 BKN036 BKN048 22 22 100% 75.67 0.0
06 05:15 Calm 8.05 Fog/Mist SCT018 BKN024 OVC043 23 23 100% 75.67 0.0
06 04:55 Calm 8.05 Fog/Mist FEW016 SCT023 BKN039 22 22 100% 75.67 0.0
06 04:35 Calm 8.05 Fog/Mist BKN016 BKN022 BKN028 23 23 100% 75.67 0.0
06 04:15 Calm 9.66 Fog/Mist SCT018 SCT023 BKN030 23 23 100% 75.64 0.0
06 03:55 S 7 9.66 Fog/Mist FEW020 SCT025 OVC031 23 23 100% 75.67 0.0
06 03:35 SE 6 11.27 Overcast BKN019 OVC025 23 23 100% 75.67 0.0
Date Time (cdt) Wind (kph) Vis. (km) Weather Sky Cond. Air Dwpt Max. Min. Relative Humidity Wind Chill (°C) Heat Index (°C) altimeter (cm) sea level (mb) 1 hr 3 hr 6 hr
6 hour
Temperature (ºC) Pressure Precipitation (cm)